createdAt,value
2016-04-03T00:00:12.243Z,41
2016-04-03T00:01:13.559Z,41
2016-04-03T00:02:14.889Z,41
2016-04-03T00:03:16.220Z,41
2016-04-03T00:04:17.708Z,42
2016-04-03T00:05:19.163Z,42
2016-04-03T00:06:20.306Z,42
2016-04-03T00:07:21.762Z,42
2016-04-03T00:08:23.328Z,42
2016-04-03T00:09:21.096Z,42
2016-04-03T00:10:18.880Z,42
2016-04-03T00:11:16.710Z,42
2016-04-03T00:12:14.432Z,42
2016-04-03T00:13:12.216Z,42
2016-04-03T00:14:09.985Z,43
2016-04-03T00:15:08.221Z,43
2016-04-03T00:16:09.208Z,43
2016-04-03T00:17:07.149Z,43
2016-04-03T00:18:05.527Z,43
2016-04-03T00:19:03.795Z,43
2016-04-03T00:20:02.079Z,43
2016-04-03T00:21:00.269Z,43
2016-04-03T00:21:58.553Z,44
2016-04-03T00:22:57.212Z,44
2016-04-03T00:23:55.637Z,44
2016-04-03T00:24:54.482Z,44
2016-04-03T00:25:55.486Z,45
2016-04-03T00:26:54.535Z,45
2016-04-03T00:27:53.960Z,45
2016-04-03T00:28:53.244Z,46
2016-04-03T00:29:52.731Z,46
2016-04-03T00:30:52.234Z,46
2016-04-03T00:31:52.048Z,46
2016-04-03T00:32:51.598Z,46
2016-04-03T00:33:51.414Z,46
2016-04-03T00:34:51.291Z,46
2016-04-03T00:35:52.497Z,46
2016-04-03T00:36:52.108Z,46
2016-04-03T00:37:51.892Z,46
2016-04-03T00:38:51.692Z,47
2016-04-03T00:39:51.758Z,47
2016-04-03T00:40:51.823Z,47
2016-04-03T00:41:51.873Z,47
2016-04-03T00:42:51.938Z,47
2016-04-03T00:43:52.128Z,47
2016-04-03T00:44:52.224Z,47
2016-04-03T00:45:53.258Z,47
2016-04-03T00:46:53.292Z,47
2016-04-03T00:47:53.497Z,47
2016-04-03T00:48:53.672Z,47
2016-04-03T00:49:53.721Z,47
2016-04-03T00:51:54.368Z,47
2016-04-03T00:52:54.527Z,47
2016-04-03T00:53:54.858Z,47
2016-04-03T00:54:55.220Z,47
2016-04-03T00:55:56.238Z,47
2016-04-03T00:56:56.568Z,47
2016-04-03T00:57:56.446Z,47
2016-04-03T00:58:57.309Z,48
2016-04-03T00:59:57.733Z,48
2016-04-03T01:00:58.315Z,48
2016-04-03T01:01:59.145Z,54
2016-04-03T01:02:59.570Z,48
2016-04-03T01:03:59.995Z,48
2016-04-03T01:05:00.748Z,48
2016-04-03T01:06:01.656Z,48
2016-04-03T01:07:02.206Z,48
2016-04-03T01:08:02.828Z,48
2016-04-03T01:09:03.343Z,48
2016-04-03T01:10:03.907Z,48
2016-04-03T01:11:04.613Z,48
2016-04-03T01:14:06.934Z,48
2016-04-03T01:15:07.936Z,48
2016-04-03T01:16:08.940Z,48
2016-04-03T01:17:09.789Z,48
2016-04-03T01:18:10.589Z,48
2016-04-03T01:19:11.561Z,48
2016-04-03T01:20:12.110Z,48
2016-04-03T01:23:14.821Z,48
2016-04-03T01:25:16.264Z,48
2016-04-03T01:26:17.283Z,48
2016-04-03T01:27:18.130Z,49
2016-04-03T01:28:19.288Z,49
2016-04-03T01:29:20.369Z,49
2016-04-03T01:30:21.434Z,49
2016-04-03T01:31:22.515Z,49
2016-04-03T01:32:23.596Z,49
2016-04-03T01:33:24.660Z,49
2016-04-03T01:34:25.835Z,49
2016-04-03T01:35:26.900Z,49
2016-04-03T01:36:27.778Z,49
2016-04-03T01:37:29.218Z,49
2016-04-03T01:38:30.423Z,49
2016-04-03T01:39:31.865Z,49
2016-04-03T01:40:33.195Z,49
2016-04-03T01:41:34.401Z,49
2016-04-03T01:42:35.481Z,49
2016-04-03T01:43:36.562Z,49
2016-04-03T01:44:37.737Z,49
2016-04-03T01:45:38.708Z,49
2016-04-03T01:46:39.774Z,49
2016-04-03T01:47:41.217Z,49
2016-04-03T01:48:42.454Z,49
2016-04-03T01:49:43.769Z,49
2016-04-03T01:50:45.100Z,49
2016-04-03T01:51:46.415Z,49
2016-04-03T01:52:47.902Z,49
2016-04-03T01:53:49.186Z,49
2016-04-03T01:54:50.517Z,49
2016-04-03T01:55:51.910Z,49
2016-04-03T01:56:52.804Z,49
2016-04-03T01:57:54.259Z,49
2016-04-03T01:58:55.496Z,49
2016-04-03T01:59:56.796Z,49
2016-04-03T02:00:58.252Z,49
2016-04-03T02:01:59.568Z,49
2016-04-03T02:03:00.820Z,49
2016-04-03T02:04:02.229Z,49
2016-04-03T02:05:03.575Z,49
2016-04-03T02:06:04.843Z,49
2016-04-03T02:07:05.831Z,49
2016-04-03T02:08:07.166Z,49
2016-04-03T02:09:08.497Z,49
2016-04-03T02:10:09.968Z,49
2016-04-03T02:11:11.159Z,49
2016-04-03T02:12:12.599Z,49
2016-04-03T02:13:13.805Z,49
2016-04-03T02:14:15.261Z,49
2016-04-03T02:15:16.481Z,50
2016-04-03T02:16:18.109Z,50
2016-04-03T02:17:19.144Z,50
2016-04-03T02:18:20.771Z,50
2016-04-03T02:19:22.336Z,50
2016-04-03T02:20:23.885Z,50
2016-04-03T02:21:25.451Z,50
2016-04-03T02:22:27.032Z,50
2016-04-03T02:23:28.628Z,50
2016-04-03T02:24:30.210Z,50
2016-04-03T02:25:28.008Z,50
2016-04-03T02:26:25.949Z,50
2016-04-03T02:27:26.842Z,50
2016-04-03T02:28:24.641Z,50
2016-04-03T02:29:22.410Z,50
2016-04-03T02:30:20.351Z,50
2016-04-03T02:31:17.962Z,50
2016-04-03T02:32:19.543Z,50
2016-04-03T02:33:21.154Z,50
2016-04-03T02:34:22.861Z,50
2016-04-03T02:35:20.504Z,50
2016-04-03T02:36:18.335Z,50
2016-04-03T02:37:19.370Z,50
2016-04-03T02:38:17.247Z,50
2016-04-03T02:39:14.921Z,50
2016-04-03T02:40:12.845Z,50
2016-04-03T02:41:10.473Z,50
2016-04-03T02:42:08.383Z,50
2016-04-03T02:43:06.166Z,50
2016-04-03T02:44:03.747Z,50
2016-04-03T09:23:41.319Z,59
2016-04-03T09:24:39.353Z,58
2016-04-03T09:25:40.918Z,57
2016-04-03T09:26:42.249Z,57
2016-04-03T09:27:43.346Z,57
2016-04-03T09:28:44.411Z,57
2016-04-03T09:29:45.227Z,56
2016-04-03T09:30:45.604Z,56
2016-04-03T09:31:46.607Z,56
2016-04-03T09:32:46.921Z,55
2016-04-03T09:33:46.988Z,55
2016-04-03T09:34:46.786Z,54
2016-04-03T09:35:46.243Z,54
2016-04-03T09:36:46.479Z,54
2016-04-03T09:37:44.685Z,53
2016-04-03T09:38:43.737Z,53
2016-04-03T09:39:42.833Z,53
2016-04-03T09:40:41.757Z,53
2016-04-03T09:41:42.667Z,53
2016-04-03T09:43:40.250Z,53
2016-04-03T09:44:39.050Z,52
2016-04-03T09:45:37.709Z,52
2016-04-03T09:46:36.242Z,52
2016-04-03T09:47:34.417Z,52
2016-04-03T09:48:32.936Z,53
2016-04-03T09:49:31.844Z,53
2016-04-03T09:50:30.831Z,54
2016-04-03T09:51:31.850Z,54
2016-04-03T09:52:31.165Z,54
2016-04-03T09:53:30.825Z,54
2016-04-03T09:54:30.249Z,53
2016-04-03T09:55:29.297Z,53
2016-04-03T09:56:28.472Z,53
2016-04-03T09:57:27.147Z,53
2016-04-03T09:58:25.930Z,53
2016-04-03T09:59:25.012Z,54
2016-04-03T10:00:24.343Z,54
2016-04-03T10:01:25.361Z,54
2016-04-03T10:02:24.843Z,54
2016-04-03T10:03:24.363Z,54
2016-04-03T10:04:23.476Z,54
2016-04-03T10:05:22.722Z,54
2016-04-03T10:07:22.096Z,55
2016-04-03T10:08:21.848Z,55
2016-04-03T10:09:21.664Z,55
2016-04-03T10:10:21.666Z,55
2016-04-03T10:11:22.732Z,55
2016-04-03T10:12:22.984Z,55
2016-04-03T10:13:22.784Z,54
2016-04-03T10:14:22.334Z,54
2016-04-03T10:15:21.633Z,52
2016-04-03T10:16:20.433Z,52
2016-04-03T10:17:19.216Z,52
2016-04-03T10:18:18.141Z,54
2016-04-03T10:19:17.675Z,55
2016-04-03T10:20:18.022Z,56
2016-04-03T10:21:18.946Z,57
2016-04-03T10:22:20.292Z,58
2016-04-03T10:23:18.186Z,58
2016-04-03T10:24:15.845Z,58
2016-04-03T10:25:13.628Z,58
2016-04-03T10:26:11.413Z,59
2016-04-03T10:27:09.571Z,59
2016-04-03T10:28:07.465Z,59
2016-04-03T10:29:05.496Z,59
2016-04-03T10:30:03.593Z,59
2016-04-03T10:31:04.627Z,60
2016-04-03T10:32:03.536Z,60
2016-04-03T10:33:02.194Z,61
2016-04-03T10:34:01.260Z,61
2016-04-03T10:35:00.590Z,61
2016-04-03T10:35:59.843Z,62
2016-04-03T10:36:59.392Z,62
2016-04-03T10:37:59.223Z,63
2016-04-03T10:38:59.257Z,63
2016-04-03T10:39:59.651Z,63
2016-04-03T10:41:00.669Z,64
2016-04-03T10:42:01.328Z,64
2016-04-03T10:43:02.065Z,64
2016-04-03T10:44:02.974Z,64
2016-04-03T10:45:03.696Z,65
2016-04-03T10:46:04.761Z,65
2016-04-03T10:47:05.842Z,65
2016-04-03T10:48:07.159Z,65
2016-04-03T10:49:08.490Z,65
2016-04-03T10:50:10.133Z,65
2016-04-03T10:51:11.152Z,66
2016-04-03T10:52:09.044Z,66
2016-04-03T10:53:06.716Z,66
2016-04-03T10:54:04.594Z,66
2016-04-03T10:55:02.378Z,66
2016-04-03T10:56:00.163Z,66
2016-04-03T10:56:58.212Z,66
2016-04-03T10:57:56.121Z,66
2016-04-03T10:58:54.155Z,66
2016-04-03T10:59:52.235Z,66
2016-04-03T11:00:53.254Z,66
2016-04-03T11:01:51.412Z,66
2016-04-03T11:02:49.321Z,66
2016-04-03T11:03:47.215Z,66
2016-04-03T11:04:44.874Z,66
2016-04-03T11:05:42.768Z,66
2016-04-03T11:06:40.458Z,66
2016-04-03T11:07:38.218Z,66
2016-04-03T11:08:36.001Z,66
2016-04-03T11:09:33.832Z,66
2016-04-03T11:10:34.960Z,66
2016-04-03T11:11:32.885Z,66
2016-04-03T11:12:30.920Z,66
2016-04-03T11:13:28.953Z,66
2016-04-03T11:14:26.987Z,66
2016-04-03T11:15:25.020Z,66
2016-04-03T11:16:23.039Z,67
2016-04-03T11:17:21.322Z,67
2016-04-03T11:18:19.606Z,67
2016-04-03T11:19:18.141Z,67
2016-04-03T11:20:18.972Z,67
2016-04-03T11:21:17.255Z,67
2016-04-03T11:22:15.539Z,67
2016-04-03T11:23:13.824Z,67
2016-04-03T11:24:12.138Z,66
2016-04-03T11:25:10.172Z,66
2016-04-03T11:26:08.175Z,67
2016-04-03T11:27:06.613Z,66
2016-04-03T11:28:04.506Z,66
2016-04-03T11:29:02.603Z,66
2016-04-03T11:30:03.621Z,66
2016-04-03T11:31:01.655Z,66
2016-04-03T11:31:59.689Z,66
2016-04-03T11:32:57.723Z,66
2016-04-03T11:33:55.866Z,66
2016-04-03T11:34:53.556Z,65
2016-04-03T11:35:55.106Z,65
2016-04-03T11:36:56.687Z,65
2016-04-03T11:37:58.283Z,66
2016-04-03T11:38:56.224Z,65
2016-04-03T11:39:57.132Z,65
2016-04-03T11:40:58.698Z,65
2016-04-03T11:42:00.309Z,65
2016-04-03T11:43:01.875Z,65
2016-04-03T11:44:03.439Z,65
2016-04-03T11:45:05.067Z,65
2016-04-03T11:46:06.351Z,65
2016-04-03T11:47:07.435Z,65
2016-04-03T11:48:08.516Z,65
2016-04-03T11:49:09.769Z,65
2016-04-03T11:50:10.662Z,65
2016-04-03T11:51:11.728Z,65
2016-04-03T11:52:12.917Z,65
2016-04-03T11:53:13.998Z,64
2016-04-03T11:54:14.720Z,64
2016-04-03T11:55:15.519Z,64
2016-04-03T11:56:16.459Z,64
2016-04-03T11:57:17.040Z,64
2016-04-03T11:58:17.480Z,64
2016-04-03T11:59:18.107Z,64
2016-04-03T12:00:19.126Z,63
2016-04-03T12:01:19.427Z,63
2016-04-03T12:02:19.335Z,63
2016-04-03T12:03:20.071Z,63
2016-04-03T12:04:20.388Z,63
2016-04-03T12:05:20.688Z,64
2016-04-03T12:06:21.393Z,63
2016-04-03T12:07:21.582Z,63
2016-04-03T12:08:21.882Z,63
2016-04-03T12:09:22.026Z,63
2016-04-03T12:10:23.044Z,63
2016-04-03T12:11:23.079Z,63
2016-04-03T12:12:23.159Z,63
2016-04-03T12:13:23.334Z,63
2016-04-03T12:14:23.273Z,63
2016-04-03T12:15:23.323Z,63
2016-04-03T12:16:23.654Z,63
2016-04-03T12:17:23.954Z,63
2016-04-03T12:18:24.018Z,63
2016-04-03T12:19:24.192Z,63
2016-04-03T12:20:25.181Z,63
2016-04-03T12:21:25.214Z,63
2016-04-03T12:22:25.389Z,63
2016-04-03T12:23:25.610Z,63
2016-04-03T12:24:25.909Z,63
2016-04-03T12:25:26.225Z,63
2016-04-03T12:26:26.539Z,64
2016-04-03T12:27:27.106Z,64
2016-04-03T12:28:28.030Z,64
2016-04-03T12:29:28.689Z,64
2016-04-03T12:30:29.567Z,64
2016-04-03T12:31:30.397Z,64
2016-04-03T12:32:31.213Z,64
2016-04-03T12:33:32.028Z,64
2016-04-03T12:34:32.968Z,64
2016-04-03T12:35:33.675Z,64
2016-04-03T12:36:34.489Z,64
2016-04-03T12:37:35.304Z,64
2016-04-03T12:38:36.135Z,65
2016-04-03T12:39:37.387Z,65
2016-04-03T12:40:38.282Z,65
2016-04-03T12:41:39.363Z,65
2016-04-03T12:42:40.427Z,65
2016-04-03T12:43:41.493Z,65
2016-04-03T12:44:42.589Z,65
2016-04-03T12:45:43.654Z,65
2016-04-03T12:46:44.719Z,65
2016-04-03T12:47:45.801Z,65
2016-04-03T12:48:46.882Z,65
2016-04-03T12:49:48.259Z,65
2016-04-03T12:50:49.277Z,65
2016-04-03T12:51:50.858Z,66
2016-04-03T12:52:48.642Z,66
2016-04-03T12:53:46.535Z,66
2016-04-03T12:54:44.475Z,66
2016-04-03T12:55:42.493Z,66
2016-04-03T12:56:40.496Z,67
2016-04-03T12:57:38.828Z,66
2016-04-03T12:58:36.845Z,66
2016-04-03T12:59:34.942Z,66
2016-04-03T13:00:35.914Z,66
2016-04-03T13:01:33.729Z,66
2016-04-03T13:02:31.778Z,66
2016-04-03T13:03:29.809Z,66
2016-04-03T13:04:27.983Z,67
2016-04-03T13:05:26.097Z,67
2016-04-03T13:06:24.395Z,67
2016-04-03T13:07:22.680Z,67
2016-04-03T13:08:20.964Z,67
2016-04-03T13:09:19.310Z,67
2016-04-03T13:10:20.453Z,67
2016-04-03T13:11:18.878Z,67
2016-04-03T13:12:17.412Z,67
2016-04-03T13:13:15.946Z,67
2016-04-03T13:14:14.496Z,67
2016-04-03T13:15:13.030Z,67
2016-04-03T13:16:11.313Z,67
2016-04-03T13:17:09.722Z,67
2016-04-03T13:18:07.913Z,66
2016-04-03T13:19:06.118Z,66
2016-04-03T13:20:07.137Z,66
2016-04-03T13:21:05.077Z,66
2016-04-03T13:22:03.095Z,66
2016-04-03T13:23:01.097Z,67
2016-04-03T13:23:59.398Z,67
2016-04-03T13:24:57.681Z,67
2016-04-03T13:25:55.965Z,67
2016-04-03T13:26:54.374Z,67
2016-04-03T13:27:52.548Z,67
2016-04-03T13:28:51.145Z,67
2016-04-03T13:29:52.163Z,67
2016-04-03T13:30:50.713Z,67
2016-04-03T13:31:49.372Z,67
2016-04-03T13:32:47.796Z,67
2016-04-03T13:33:46.440Z,67
2016-04-03T13:34:44.895Z,67
2016-04-03T13:35:43.413Z,67
2016-04-03T13:36:41.963Z,67
2016-04-03T13:37:40.388Z,66
2016-04-03T13:38:38.359Z,66
2016-04-03T13:39:39.378Z,66
2016-04-03T13:40:37.287Z,66
2016-04-03T13:41:35.321Z,66
2016-04-03T13:42:33.230Z,66
2016-04-03T13:43:31.261Z,66
2016-04-03T13:44:29.294Z,66
2016-04-03T13:45:27.329Z,66
2016-04-03T13:46:25.378Z,66
2016-04-03T13:47:23.162Z,66
2016-04-03T13:48:20.993Z,66
2016-04-03T13:49:22.105Z,65
2016-04-03T13:50:23.592Z,65
2016-04-03T13:51:24.908Z,65
2016-04-03T13:52:26.238Z,65
2016-04-03T13:53:27.569Z,65
2016-04-03T13:54:28.900Z,65
2016-04-03T13:55:30.590Z,65
2016-04-03T13:56:32.064Z,65
2016-04-03T13:57:33.645Z,66
2016-04-03T13:58:31.504Z,66
2016-04-03T13:59:32.509Z,66
2016-04-03T14:00:30.400Z,66
2016-04-03T14:01:28.059Z,66
2016-04-03T14:02:25.842Z,66
2016-04-03T14:03:24.002Z,66
2016-04-03T14:04:21.973Z,66
2016-04-03T14:05:19.944Z,66
2016-04-03T14:06:18.089Z,66
2016-04-03T14:07:16.013Z,66
2016-04-03T14:08:14.094Z,66
2016-04-03T14:09:15.127Z,66
2016-04-03T14:10:13.271Z,66
2016-04-03T14:11:11.195Z,66
2016-04-03T14:12:09.338Z,66
2016-04-03T14:13:07.263Z,66
2016-04-03T14:14:05.282Z,66
2016-04-03T14:15:03.316Z,66
2016-04-03T14:16:01.350Z,66
2016-04-03T14:16:59.509Z,66
2016-04-03T14:17:57.339Z,66
2016-04-03T14:18:58.249Z,66
2016-04-03T14:19:56.032Z,66
2016-04-03T14:20:54.045Z,66
2016-04-03T14:21:52.081Z,66
2016-04-03T14:22:50.102Z,66
2016-04-03T14:23:48.231Z,66
2016-04-03T14:24:46.252Z,66
2016-04-03T14:25:44.135Z,67
2016-04-03T14:26:42.524Z,67
2016-04-03T14:27:40.771Z,66
2016-04-03T14:28:41.909Z,66
2016-04-03T14:29:39.563Z,66
2016-04-03T14:30:37.578Z,66
2016-04-03T14:31:35.612Z,67
2016-04-03T14:32:34.002Z,67
2016-04-03T14:33:32.190Z,66
2016-04-03T14:34:30.223Z,66
2016-04-03T14:35:28.004Z,66
2016-04-03T14:36:26.037Z,66
2016-04-03T14:37:24.118Z,67
2016-04-03T14:38:25.245Z,67
2016-04-03T14:39:23.418Z,67
2016-04-03T14:40:21.702Z,67
2016-04-03T14:41:20.094Z,67
2016-04-03T14:42:18.534Z,67
2016-04-03T14:43:17.068Z,67
2016-04-03T14:44:15.619Z,67
2016-04-03T14:45:14.158Z,67
2016-04-03T14:46:12.692Z,67
2016-04-03T14:47:11.305Z,68
2016-04-03T14:48:12.308Z,68
2016-04-03T14:49:11.107Z,68
2016-04-03T14:50:09.906Z,68
2016-04-03T14:51:08.816Z,68
2016-04-03T14:52:07.740Z,68
2016-04-03T14:53:06.805Z,68
2016-04-03T14:54:05.839Z,68
2016-04-03T14:55:04.889Z,68
2016-04-03T14:56:03.938Z,68
2016-04-03T14:57:03.035Z,68
2016-04-03T14:58:04.053Z,68
2016-04-03T14:59:03.228Z,68
2016-04-03T15:00:02.137Z,69
2016-04-03T15:01:01.561Z,69
2016-04-03T15:02:00.767Z,69
2016-04-03T15:03:00.066Z,69
2016-04-03T15:03:59.726Z,69
2016-04-03T15:04:59.276Z,69
2016-04-03T15:05:58.731Z,70
2016-04-03T15:06:58.577Z,69
2016-04-03T15:07:59.752Z,68
2016-04-03T15:08:58.771Z,68
2016-04-03T15:09:57.554Z,67
2016-04-03T15:10:55.994Z,66
2016-04-03T15:11:54.028Z,65
2016-04-03T15:12:55.593Z,64
2016-04-03T15:13:56.675Z,64
2016-04-03T15:14:57.615Z,63
2016-04-03T15:15:57.805Z,63
2016-04-03T15:16:58.308Z,63
2016-04-03T15:17:59.200Z,63
2016-04-03T15:18:59.250Z,62
2016-04-03T15:19:59.081Z,63
2016-04-03T15:20:59.709Z,63
2016-04-03T15:21:59.196Z,63
2016-04-03T15:22:59.527Z,63
2016-04-03T15:23:59.827Z,63
2016-04-03T15:25:00.141Z,63
2016-04-03T15:26:00.191Z,63
2016-04-03T15:27:00.334Z,62
2016-04-03T15:28:01.337Z,62
2016-04-03T15:29:01.152Z,62
2016-04-03T15:30:00.967Z,62
2016-04-03T15:31:00.767Z,62
2016-04-03T15:32:00.582Z,62
2016-04-03T15:33:00.381Z,62
2016-04-03T15:34:00.197Z,62
2016-04-03T15:34:59.996Z,63
2016-04-03T15:36:00.187Z,63
2016-04-03T15:37:00.174Z,62
2016-04-03T15:38:01.208Z,63
2016-04-03T15:39:01.273Z,63
2016-04-03T15:40:01.322Z,62
2016-04-03T15:41:01.137Z,63
2016-04-03T15:42:00.890Z,62
2016-04-03T15:43:01.033Z,61
2016-04-03T15:44:00.334Z,61
2016-04-03T15:44:59.618Z,60
2016-04-03T15:45:58.416Z,60
2016-04-03T15:46:56.997Z,59
2016-04-03T15:47:58.016Z,59
2016-04-03T15:48:56.175Z,59
2016-04-03T15:49:54.349Z,60
2016-04-03T15:50:53.008Z,60
2016-04-03T15:51:51.433Z,59
2016-04-03T15:52:49.716Z,59
2016-04-03T15:53:48.016Z,59
2016-04-03T15:54:46.300Z,59
2016-04-03T15:55:44.584Z,59
2016-04-03T15:56:43.040Z,59
2016-04-03T15:57:43.949Z,59
2016-04-03T15:58:42.357Z,59
2016-04-03T15:59:40.704Z,59
2016-04-03T16:00:38.802Z,59
2016-04-03T16:01:37.083Z,59
2016-04-03T16:02:35.382Z,59
2016-04-03T16:03:33.524Z,59
2016-04-03T16:04:31.418Z,58
2016-04-03T16:05:29.218Z,57
2016-04-03T16:06:30.627Z,57
2016-04-03T16:07:31.646Z,57
2016-04-03T16:08:32.820Z,56
2016-04-03T16:09:33.651Z,56
2016-04-03T16:10:34.341Z,56
2016-04-03T16:11:34.921Z,56
2016-04-03T16:12:35.737Z,57
2016-04-03T16:13:36.926Z,58
2016-04-03T16:14:38.385Z,58
2016-04-03T16:15:36.198Z,59
2016-04-03T16:16:34.529Z,60
2016-04-03T16:17:35.656Z,60
2016-04-03T16:18:34.331Z,60
2016-04-03T16:19:33.256Z,60
2016-04-03T16:20:31.914Z,60
2016-04-03T16:21:30.714Z,60
2016-04-03T16:22:29.357Z,59
2016-04-03T16:23:27.517Z,59
2016-04-03T16:24:25.581Z,58
2016-04-03T16:25:23.333Z,58
2016-04-03T16:26:21.180Z,58
2016-04-03T16:27:22.261Z,59
2016-04-03T16:28:20.342Z,59
2016-04-03T16:29:18.517Z,59
2016-04-03T16:30:16.816Z,59
2016-04-03T16:31:15.085Z,59
2016-04-03T16:32:13.369Z,60
2016-04-03T16:33:11.918Z,60
2016-04-03T16:34:10.718Z,61
2016-04-03T16:35:09.814Z,61
2016-04-03T16:36:08.973Z,61
2016-04-03T16:37:09.882Z,60
2016-04-03T16:38:08.416Z,59
2016-04-03T16:39:06.403Z,59
2016-04-03T16:40:04.734Z,59
2016-04-03T16:41:02.768Z,59
2016-04-03T16:42:00.801Z,59
2016-04-03T16:42:58.835Z,59
2016-04-03T16:43:56.870Z,59
2016-04-03T16:44:55.154Z,59
2016-04-03T16:45:53.500Z,59
2016-04-03T16:46:54.534Z,60
2016-04-03T16:47:53.192Z,60
2016-04-03T16:48:51.618Z,60
2016-04-03T16:49:50.401Z,61
2016-04-03T16:50:49.451Z,61
2016-04-03T16:51:48.750Z,61
2016-04-03T16:52:48.066Z,62
2016-04-03T16:53:47.599Z,62
2016-04-03T16:54:47.399Z,62
2016-04-03T16:55:47.261Z,63
2016-04-03T16:56:48.295Z,63
2016-04-03T16:57:48.345Z,63
2016-04-03T16:58:48.660Z,64
2016-04-03T16:59:49.225Z,64
2016-04-03T17:00:49.806Z,64
2016-04-03T17:01:50.309Z,63
2016-04-03T17:02:50.686Z,63
2016-04-03T17:03:51.002Z,63
2016-04-03T17:04:51.441Z,63
2016-04-03T17:05:51.429Z,62
2016-04-03T17:06:52.463Z,62
2016-04-03T17:07:52.027Z,61
2016-04-03T17:08:51.327Z,61
2016-04-03T17:09:50.612Z,61
2016-04-03T17:10:49.927Z,61
2016-04-03T17:11:49.211Z,61
2016-04-03T17:12:48.276Z,61
2016-04-03T17:13:47.326Z,61
2016-04-03T17:14:46.375Z,61
2016-04-03T17:15:45.596Z,61
2016-04-03T17:16:46.505Z,61
2016-04-03T17:17:45.789Z,61
2016-04-03T17:18:45.104Z,62
2016-04-03T17:19:44.654Z,62
2016-04-03T17:20:44.250Z,62
2016-04-03T17:21:43.753Z,62
2016-04-03T17:22:43.552Z,62
2016-04-03T17:23:43.367Z,63
2016-04-03T17:24:43.433Z,63
2016-04-03T17:25:43.544Z,63
2016-04-03T17:26:44.672Z,63
2016-04-03T17:27:44.925Z,63
2016-04-03T17:28:45.194Z,63
2016-04-03T17:29:45.665Z,63
2016-04-03T17:30:45.824Z,63
2016-04-03T17:31:46.139Z,63
2016-04-03T17:33:46.285Z,62
2016-04-03T17:34:46.069Z,62
2016-04-03T17:35:46.056Z,63
2016-04-03T17:36:46.949Z,63
2016-04-03T17:37:47.030Z,63
2016-04-03T17:38:47.330Z,63
2016-04-03T17:39:47.646Z,63
2016-04-03T17:40:47.960Z,63
2016-04-03T17:41:48.276Z,63
2016-04-03T17:42:48.590Z,63
2016-04-03T17:43:48.921Z,63
2016-04-03T17:44:49.221Z,63
2016-04-03T17:45:49.708Z,63
2016-04-03T17:46:50.726Z,63
2016-04-03T17:47:50.932Z,63
2016-04-03T17:48:51.248Z,63
2016-04-03T17:49:51.673Z,64
2016-04-03T17:50:52.237Z,64
2016-04-03T17:51:52.693Z,64
2016-04-03T17:52:53.259Z,64
2016-04-03T17:53:53.839Z,64
2016-04-03T17:54:54.404Z,64
2016-04-03T17:55:55.406Z,64
2016-04-03T17:56:56.300Z,64
2016-04-03T17:57:57.240Z,64
2016-04-03T17:58:58.196Z,64
2016-04-03T17:59:58.856Z,64
2016-04-03T18:01:00.358Z,65
2016-04-03T18:02:01.798Z,65
2016-04-03T18:03:03.019Z,65
2016-04-03T18:04:04.350Z,65
2016-04-03T18:05:05.665Z,64
2016-04-03T18:06:06.793Z,64
2016-04-03T18:07:07.827Z,64
2016-04-03T18:08:08.908Z,64
2016-04-03T18:09:09.973Z,64
2016-04-03T18:10:11.054Z,64
2016-04-03T18:11:12.119Z,64
2016-04-03T18:12:13.200Z,64
2016-04-03T18:13:14.296Z,65
2016-04-03T18:14:15.612Z,65
2016-04-03T18:15:16.926Z,65
2016-04-03T18:16:18.320Z,65
2016-04-03T18:17:19.338Z,65
2016-04-03T18:18:20.670Z,64
2016-04-03T18:19:21.673Z,64
2016-04-03T18:20:22.315Z,64
2016-04-03T18:21:22.881Z,64
2016-04-03T18:22:23.476Z,63
2016-04-03T18:23:23.761Z,63
2016-04-03T18:24:24.076Z,63
2016-04-03T18:25:24.142Z,62
2016-04-03T18:26:24.004Z,63
2016-04-03T18:27:25.022Z,63
2016-04-03T18:28:25.353Z,63
2016-04-03T18:29:25.667Z,64
2016-04-03T18:30:26.217Z,64
2016-04-03T18:31:26.788Z,64
2016-04-03T18:32:27.619Z,64
2016-04-03T18:33:28.559Z,64
2016-04-03T18:34:29.406Z,64
2016-04-03T18:35:29.861Z,64
2016-04-03T18:36:30.708Z,64
2016-04-03T18:37:31.835Z,64
2016-04-03T18:38:32.353Z,64
2016-04-03T18:39:32.856Z,64
2016-04-03T18:40:33.422Z,64
2016-04-03T18:41:34.002Z,64
2016-04-03T18:42:34.818Z,64
2016-04-03T18:43:35.649Z,64
2016-04-03T18:44:36.464Z,64
2016-04-03T18:45:37.294Z,64
2016-04-03T18:46:38.236Z,64
2016-04-03T18:47:39.190Z,64
2016-04-03T18:48:40.006Z,64
2016-04-03T18:49:40.961Z,64
2016-04-03T18:50:41.652Z,64
2016-04-03T18:51:42.467Z,63
2016-04-03T18:52:42.782Z,62
2016-04-03T18:53:42.847Z,62
2016-04-03T18:54:42.912Z,62
2016-04-03T18:55:43.087Z,62
2016-04-03T18:56:43.090Z,62
2016-04-03T18:57:44.107Z,62
2016-04-03T18:58:44.282Z,62
2016-04-03T18:59:44.223Z,62
2016-04-03T19:00:44.288Z,62
2016-04-03T19:01:44.478Z,63
2016-04-03T19:02:44.668Z,63
2016-04-03T19:03:45.046Z,63
2016-04-03T19:04:45.317Z,62
2016-04-03T19:05:45.367Z,62
2016-04-03T19:06:45.667Z,62
2016-04-03T19:07:46.528Z,62
2016-04-03T19:08:46.078Z,61
2016-04-03T19:09:45.503Z,61
2016-04-03T19:10:44.550Z,60
2016-04-03T19:11:42.942Z,58
2016-04-03T19:12:40.727Z,57
2016-04-03T19:13:42.072Z,56
2016-04-03T19:14:42.748Z,55
2016-04-03T19:15:42.704Z,54
2016-04-03T19:16:42.580Z,53
2016-04-03T19:17:43.584Z,53
2016-04-03T19:18:42.743Z,52
2016-04-03T19:19:41.558Z,52
2016-04-03T19:20:40.044Z,52
2016-04-03T19:21:38.408Z,51
2016-04-03T19:22:36.316Z,51
2016-04-03T19:23:34.210Z,50
2016-04-03T19:24:35.665Z,50
2016-04-03T19:25:36.996Z,50
2016-04-03T19:26:38.390Z,49
2016-04-03T19:27:39.393Z,49
2016-04-03T19:28:40.332Z,49
2016-04-03T19:29:41.038Z,48
2016-04-03T19:30:41.634Z,48
2016-04-03T19:31:41.934Z,48
2016-04-03T19:32:42.265Z,48
2016-04-03T19:33:42.659Z,48
2016-04-03T19:34:42.864Z,47
2016-04-03T19:35:42.929Z,47
2016-04-03T19:36:43.042Z,47
2016-04-03T19:37:44.075Z,47
2016-04-03T19:38:44.125Z,47
2016-04-03T19:39:44.190Z,47
2016-04-03T19:40:44.005Z,47
2016-04-03T19:41:43.820Z,47
2016-04-03T19:42:44.464Z,47
2016-04-03T19:43:43.419Z,46
2016-04-03T19:44:42.953Z,46
2016-04-03T19:45:42.503Z,46
2016-04-03T19:46:42.115Z,46
2016-04-03T19:47:43.149Z,46
2016-04-03T19:48:42.558Z,46
2016-04-03T19:49:41.732Z,46
2016-04-03T19:50:41.016Z,46
2016-04-03T19:51:40.441Z,46
2016-04-03T19:52:39.616Z,46
2016-04-03T19:53:38.930Z,46
2016-04-03T19:54:38.215Z,46
2016-04-03T19:55:37.624Z,46
2016-04-03T19:56:36.891Z,46
2016-04-03T19:57:37.879Z,46
2016-04-03T19:58:37.194Z,46
2016-04-03T19:59:36.603Z,46
2016-04-03T20:00:35.793Z,46
2016-04-03T20:01:35.187Z,46
2016-04-03T20:02:34.470Z,46
2016-04-03T20:03:33.661Z,46
2016-04-03T20:04:33.007Z,46
2016-04-03T20:05:32.260Z,46
2016-04-03T20:06:31.622Z,46
2016-04-03T20:07:32.625Z,46
2016-04-03T20:08:31.940Z,46
2016-04-03T20:09:31.224Z,46
2016-04-03T20:10:30.523Z,46
2016-04-03T20:11:29.807Z,46
2016-04-03T20:12:29.123Z,45
2016-04-03T20:13:28.281Z,46
2016-04-03T20:14:27.581Z,46
2016-04-03T20:15:26.755Z,46
2016-04-03T20:16:26.102Z,45
2016-04-03T20:17:27.166Z,45
2016-04-03T20:18:26.170Z,45
2016-04-03T20:19:25.110Z,45
2016-04-03T20:20:23.728Z,45
2016-04-03T20:21:22.527Z,45
2016-04-03T20:22:21.327Z,45
2016-04-03T20:23:20.220Z,44
2016-04-03T20:24:18.644Z,44
2016-04-03T20:25:17.303Z,44
2016-04-03T20:26:15.775Z,44
2016-04-03T20:27:16.794Z,44
2016-04-03T20:28:15.202Z,44
2016-04-03T20:29:13.361Z,44
2016-04-03T20:31:09.929Z,44
2016-04-03T20:32:08.229Z,44
2016-04-03T20:33:06.607Z,44
2016-04-03T20:34:04.766Z,44
2016-04-03T20:35:03.065Z,43
2016-04-03T20:36:01.130Z,43
2016-04-03T20:37:02.148Z,43
2016-04-03T20:38:00.167Z,43
2016-04-03T20:38:58.201Z,43
2016-04-03T20:39:56.234Z,43
2016-04-03T20:40:54.003Z,43
2016-04-03T20:41:51.787Z,43
2016-04-03T20:42:49.806Z,43
2016-04-03T20:43:47.837Z,43
2016-04-03T20:44:45.871Z,43
2016-04-03T20:45:43.951Z,43
2016-04-03T20:46:44.954Z,43
2016-04-03T20:47:43.097Z,43
2016-04-03T20:48:40.756Z,43
2016-04-03T20:49:38.525Z,43
2016-04-03T20:50:36.433Z,43
2016-04-03T20:51:34.093Z,43
2016-04-03T20:52:31.861Z,43
2016-04-03T20:53:29.629Z,43
2016-04-03T20:54:27.538Z,43
2016-04-03T20:55:25.275Z,43
2016-04-03T20:56:26.247Z,43
2016-04-03T20:57:24.030Z,43
2016-04-03T20:58:21.799Z,43
2016-04-03T20:59:19.566Z,43